createdAt,value
2019-06-15T00:04:18.163Z,71.38
2019-06-15T00:08:42.054Z,71.88
2019-06-15T00:13:05.727Z,73.11
2019-06-15T00:17:29.396Z,73.38
2019-06-15T00:21:53.065Z,74.07
2019-06-15T00:26:16.779Z,74.46
2019-06-15T00:30:40.561Z,76.10
2019-06-15T00:35:05.773Z,77.25
2019-06-15T00:39:29.465Z,77.87
2019-06-15T00:43:53.152Z,78.95
2019-06-15T00:48:16.858Z,79.37
2019-06-15T00:52:41.565Z,79.80
2019-06-15T00:57:05.337Z,80.70
2019-06-15T01:01:29.025Z,80.43
2019-06-15T01:05:52.955Z,81.07
2019-06-15T01:10:16.893Z,81.59
2019-06-15T01:14:40.583Z,81.74
2019-06-15T01:19:05.395Z,81.79
2019-06-15T01:23:29.341Z,81.72
2019-06-15T01:27:53.015Z,81.81
2019-06-15T01:32:16.875Z,82.47
2019-06-15T01:36:40.531Z,82.07
2019-06-15T01:41:05.372Z,82.27
2019-06-15T01:45:29.126Z,82.38
2019-06-15T01:49:52.801Z,82.39
2019-06-15T01:54:16.483Z,82.79
2019-06-15T01:58:40.165Z,83.61
2019-06-15T02:03:03.924Z,83.82
2019-06-15T02:07:27.605Z,84.13
2019-06-15T02:11:51.284Z,84.82
2019-06-15T02:16:15.205Z,85.68
2019-06-15T02:20:38.968Z,86.43
2019-06-15T02:25:02.650Z,86.14
2019-06-15T02:29:26.346Z,86.43
2019-06-15T02:33:50.271Z,87.08
2019-06-15T02:38:14.037Z,87.65
2019-06-15T02:42:37.817Z,88.21
2019-06-15T02:47:01.491Z,88.50
2019-06-15T02:51:26.489Z,88.50
2019-06-15T02:55:51.137Z,88.68
2019-06-15T03:00:16.699Z,89.09
2019-06-15T03:04:40.398Z,88.87
2019-06-15T03:09:06.538Z,88.82
2019-06-15T03:13:31.562Z,88.79
2019-06-15T03:17:55.318Z,88.92
2019-06-15T03:22:20.278Z,88.98
2019-06-15T03:26:43.978Z,89.09
2019-06-15T03:31:07.664Z,89.90
2019-06-15T03:35:31.486Z,90.10
2019-06-15T03:39:55.338Z,90.26
2019-06-15T03:44:19.017Z,90.32
2019-06-15T03:48:42.712Z,90.21
2019-06-15T03:53:06.375Z,90.35
2019-06-15T03:57:30.115Z,90.47
2019-06-15T04:01:53.835Z,90.93
2019-06-15T04:06:17.517Z,90.99
2019-06-15T04:10:41.363Z,91.71
2019-06-15T04:15:09.869Z,92.47
2019-06-15T04:19:33.805Z,92.63
2019-06-15T04:23:57.480Z,93.13
2019-06-15T04:28:21.248Z,93.10
2019-06-15T04:32:44.993Z,93.32
2019-06-15T04:37:08.686Z,93.32
2019-06-15T04:41:32.371Z,93.48
2019-06-15T04:45:56.120Z,94.00
2019-06-15T04:50:19.886Z,94.67
2019-06-15T04:54:43.573Z,94.55
2019-06-15T04:59:07.275Z,94.20
2019-06-15T05:03:30.959Z,94.01
2019-06-15T05:07:54.658Z,93.90
2019-06-15T05:12:18.617Z,93.60
2019-06-15T05:16:42.311Z,93.30
2019-06-15T05:21:05.996Z,93.55
2019-06-15T05:25:29.753Z,93.67
2019-06-15T05:29:56.519Z,93.54
2019-06-15T05:34:19.781Z,93.57
2019-06-15T05:38:43.479Z,93.69
2019-06-15T05:43:07.164Z,93.81
2019-06-15T05:47:30.843Z,93.89
2019-06-15T05:51:54.523Z,93.69
2019-06-15T05:56:19.246Z,93.93
2019-06-15T06:00:43.100Z,93.52
2019-06-15T06:05:07.219Z,93.42
2019-06-15T06:09:30.904Z,93.35
2019-06-15T06:13:54.600Z,93.41
2019-06-15T06:18:18.547Z,93.13
2019-06-15T06:22:43.206Z,92.63
2019-06-15T06:27:06.870Z,92.49
2019-06-15T06:31:32.159Z,92.44
2019-06-15T06:35:55.860Z,92.38
2019-06-15T06:40:19.911Z,92.18
2019-06-15T06:44:43.567Z,91.47
2019-06-15T06:49:07.500Z,91.29
2019-06-15T06:53:31.353Z,90.78
2019-06-15T06:57:57.299Z,90.65
2019-06-15T07:02:20.679Z,90.25
2019-06-15T07:06:44.360Z,89.85
2019-06-15T07:11:08.056Z,89.94
2019-06-15T07:15:31.751Z,89.96
2019-06-15T07:19:55.437Z,90.33
2019-06-15T07:24:19.290Z,90.45
2019-06-15T07:28:42.980Z,90.30
2019-06-15T07:33:06.668Z,90.22
2019-06-15T07:37:30.391Z,90.30
2019-06-15T07:41:54.034Z,90.01
2019-06-15T07:46:17.738Z,90.06
2019-06-15T07:50:41.428Z,90.73
2019-06-15T07:55:06.716Z,91.08
2019-06-15T07:59:30.584Z,91.38
2019-06-15T08:03:54.299Z,92.15
2019-06-15T08:08:17.982Z,92.35
2019-06-15T08:12:41.919Z,92.80
2019-06-15T08:17:05.745Z,93.00
2019-06-15T08:21:29.427Z,92.87
2019-06-15T08:25:53.280Z,92.64
2019-06-15T08:30:18.737Z,92.63
2019-06-15T08:34:42.675Z,92.38
2019-06-15T08:39:07.430Z,92.55
2019-06-15T08:43:31.267Z,92.49
2019-06-15T08:47:55.142Z,92.81
2019-06-15T08:52:18.821Z,93.08
2019-06-15T08:56:42.520Z,93.60
2019-06-15T09:01:06.280Z,93.66
2019-06-15T09:05:29.992Z,94.03
2019-06-15T09:09:53.693Z,93.56
2019-06-15T09:14:17.467Z,92.32
2019-06-15T09:18:41.134Z,92.93
2019-06-15T09:23:05.378Z,92.96
2019-06-15T09:27:29.086Z,91.99
2019-06-15T09:31:52.776Z,89.60
2019-06-15T09:36:16.797Z,88.23
2019-06-15T09:40:40.525Z,85.22
2019-06-15T09:45:05.186Z,83.58
2019-06-15T09:49:28.977Z,83.86
2019-06-15T09:53:52.972Z,81.73
2019-06-15T09:58:16.742Z,82.17
2019-06-15T10:02:40.837Z,82.51
2019-06-15T10:07:07.489Z,81.30
2019-06-15T10:11:31.185Z,79.48
2019-06-15T10:15:55.027Z,78.25
2019-06-15T10:20:19.279Z,76.19
2019-06-15T10:24:42.951Z,75.50
2019-06-15T10:29:06.642Z,72.30
2019-06-15T10:33:30.338Z,71.20
2019-06-15T10:37:54.032Z,71.20
2019-06-15T10:42:17.752Z,76.04
2019-06-15T10:46:41.444Z,76.04
2019-06-15T10:51:05.349Z,78.36
2019-06-15T10:55:29.039Z,80.37
2019-06-15T10:59:57.378Z,80.41
2019-06-15T11:04:18.221Z,78.24
2019-06-15T11:08:41.960Z,77.19
2019-06-15T11:17:28.538Z,75.74
2019-06-15T11:21:52.213Z,73.51
2019-06-15T11:26:15.987Z,68.86
2019-06-15T11:30:39.645Z,68.69
2019-06-15T11:35:03.848Z,69.24
2019-06-15T11:39:27.524Z,67.80
2019-06-15T11:43:53.197Z,65.92
2019-06-15T11:48:17.962Z,63.20
2019-06-15T11:52:42.017Z,62.13
2019-06-15T11:57:06.207Z,62.93
2019-06-15T12:01:30.256Z,61.75
2019-06-15T12:05:53.934Z,62.92
2019-06-15T12:10:18.729Z,60.53
2019-06-15T12:14:42.636Z,60.78
2019-06-15T12:19:06.391Z,59.88
2019-06-15T12:23:30.325Z,59.13
2019-06-15T12:27:54.143Z,59.11
2019-06-15T12:32:17.889Z,58.77
2019-06-15T12:36:41.576Z,55.36
2019-06-15T12:41:05.327Z,55.64
2019-06-15T12:45:29.064Z,52.84
2019-06-15T12:49:52.819Z,52.01
2019-06-15T12:54:16.562Z,53.11
2019-06-15T12:58:40.242Z,53.44
2019-06-15T13:03:04.072Z,53.62
2019-06-15T13:07:27.761Z,51.56
2019-06-15T13:11:51.698Z,50.65
2019-06-15T13:16:15.442Z,51.99
2019-06-15T13:20:42.848Z,52.21
2019-06-15T13:25:06.702Z,51.80
2019-06-15T13:29:30.381Z,51.65
2019-06-15T13:33:54.303Z,49.52
2019-06-15T13:38:18.002Z,50.15
2019-06-15T13:42:41.681Z,49.46
2019-06-15T13:47:05.423Z,49.29
2019-06-15T13:51:29.172Z,49.25
2019-06-15T13:55:52.839Z,48.79
2019-06-15T14:00:18.134Z,48.99
2019-06-15T14:04:42.113Z,48.90
2019-06-15T14:09:07.655Z,49.69
2019-06-15T14:13:31.328Z,49.17
2019-06-15T14:17:55.008Z,50.47
2019-06-15T14:22:18.687Z,49.12
2019-06-15T14:26:42.368Z,50.17
2019-06-15T14:31:06.124Z,50.25
2019-06-15T14:35:29.807Z,50.17
2019-06-15T14:39:53.746Z,51.82
2019-06-15T14:44:17.672Z,52.21
2019-06-15T14:48:41.335Z,52.52
2019-06-15T14:53:05.410Z,51.56
2019-06-15T14:57:29.178Z,52.21
2019-06-15T15:02:06.337Z,52.91
2019-06-15T15:06:18.488Z,53.12
2019-06-15T15:10:42.179Z,53.12
2019-06-15T15:15:07.624Z,52.28
2019-06-15T15:19:39.568Z,51.29
2019-06-15T15:24:03.248Z,51.62
2019-06-15T15:28:26.934Z,51.10
2019-06-15T15:32:50.790Z,51.54
2019-06-15T15:37:15.919Z,51.43
2019-06-15T15:41:39.933Z,51.57
2019-06-15T15:46:03.876Z,50.95
2019-06-15T15:50:27.889Z,50.61
2019-06-15T15:54:52.431Z,51.00
2019-06-15T15:59:16.432Z,51.33
2019-06-15T16:03:40.144Z,51.69
2019-06-15T16:08:06.347Z,51.70
2019-06-15T16:12:29.361Z,52.94
2019-06-15T16:16:55.849Z,51.80
2019-06-15T16:21:18.920Z,52.44
2019-06-15T16:25:42.928Z,53.01
2019-06-15T16:30:06.968Z,53.16
2019-06-15T16:34:30.722Z,52.33
2019-06-15T16:38:54.581Z,52.58
2019-06-15T16:43:18.260Z,53.69
2019-06-15T16:47:41.934Z,53.80
2019-06-15T16:52:06.147Z,53.59
2019-06-15T16:56:31.149Z,54.18
2019-06-15T17:00:56.987Z,54.23
2019-06-15T17:05:20.347Z,54.36
2019-06-15T17:09:46.526Z,54.88
2019-06-15T17:14:09.734Z,55.51
2019-06-15T17:18:33.421Z,55.61
2019-06-15T17:22:57.087Z,56.41
2019-06-15T17:27:20.849Z,56.77
2019-06-15T17:31:46.715Z,57.14
2019-06-15T17:36:10.539Z,57.80
2019-06-15T17:40:36.453Z,58.56
2019-06-15T17:44:59.994Z,58.71
2019-06-15T17:49:26.881Z,59.53
2019-06-15T17:53:49.751Z,59.95
2019-06-15T17:58:13.605Z,60.53
2019-06-15T18:02:38.269Z,61.06
2019-06-15T18:07:02.130Z,61.04
2019-06-15T18:11:26.340Z,61.64
2019-06-15T18:15:50.043Z,61.73
2019-06-15T18:20:16.042Z,61.53
2019-06-15T18:24:39.274Z,61.80
2019-06-15T18:29:03.013Z,62.43
2019-06-15T18:33:27.339Z,62.30
2019-06-15T18:37:51.039Z,62.50
2019-06-15T18:42:16.409Z,62.54
2019-06-15T18:46:40.232Z,62.17
2019-06-15T18:51:07.435Z,61.93
2019-06-15T18:55:29.389Z,61.29
2019-06-15T18:59:56.172Z,61.32
2019-06-15T19:04:27.202Z,61.64
2019-06-15T19:08:46.833Z,61.67
2019-06-15T19:13:10.766Z,61.89
2019-06-15T19:17:36.848Z,61.44
2019-06-15T19:21:59.832Z,61.18
2019-06-15T19:26:23.592Z,61.28
2019-06-15T19:30:47.706Z,60.99
2019-06-15T19:35:11.546Z,61.19
2019-06-15T19:39:36.888Z,61.54
2019-06-15T19:44:00.914Z,61.58
2019-06-15T19:48:26.819Z,62.26
2019-06-15T19:52:49.955Z,62.93
2019-06-15T19:57:13.657Z,63.64
2019-06-15T20:01:37.317Z,64.82
2019-06-15T20:06:01.127Z,66.22
2019-06-15T20:10:26.632Z,67.53
2019-06-15T20:14:50.264Z,68.38
2019-06-15T20:19:13.941Z,68.86
2019-06-15T20:23:37.811Z,69.39
2019-06-15T20:28:01.461Z,70.02
2019-06-15T20:32:26.247Z,70.84
2019-06-15T20:36:50.005Z,71.16
2019-06-15T20:41:16.225Z,70.99
2019-06-15T20:45:39.083Z,70.86
2019-06-15T20:50:03.174Z,70.71
2019-06-15T20:54:27.221Z,70.66
2019-06-15T20:58:51.314Z,70.83
2019-06-15T21:03:16.173Z,70.90
2019-06-15T21:07:40.053Z,71.25
2019-06-15T21:12:06.614Z,71.40
2019-06-15T21:16:30.580Z,71.71
2019-06-15T21:20:56.175Z,72.03
2019-06-15T21:25:20.027Z,72.30
2019-06-15T21:29:43.700Z,72.58
2019-06-15T21:34:11.905Z,72.38
2019-06-15T21:38:36.255Z,72.67
2019-06-15T21:43:00.190Z,72.97
2019-06-15T21:47:26.085Z,73.03
2019-06-15T21:51:49.749Z,73.10
2019-06-15T21:56:15.997Z,73.35
2019-06-15T22:00:48.472Z,73.21
2019-06-15T22:05:12.588Z,73.36
2019-06-15T22:09:36.630Z,73.62
2019-06-15T22:14:00.371Z,73.97
2019-06-15T22:18:24.053Z,74.29
2019-06-15T22:22:47.804Z,74.56
2019-06-15T22:27:11.477Z,74.92
2019-06-15T22:31:35.300Z,75.50
2019-06-15T22:35:58.971Z,76.23
2019-06-15T22:40:22.645Z,76.48
2019-06-15T22:44:47.672Z,76.54
2019-06-15T22:49:11.716Z,76.67
2019-06-15T22:53:36.485Z,76.86
2019-06-15T22:58:00.571Z,77.02
2019-06-15T23:02:26.106Z,77.59
2019-06-15T23:06:49.902Z,77.71
2019-06-15T23:11:13.592Z,77.79
2019-06-15T23:15:37.366Z,77.98
2019-06-15T23:20:01.130Z,77.80
2019-06-15T23:24:27.040Z,77.81
2019-06-15T23:28:50.336Z,78.36
2019-06-15T23:33:14.311Z,78.26
2019-06-15T23:37:38.446Z,78.46
2019-06-15T23:42:02.304Z,78.71
2019-06-15T23:46:27.313Z,78.84
2019-06-15T23:50:51.235Z,78.47
2019-06-15T23:55:15.567Z,78.43
2019-06-15T23:59:39.236Z,78.75
